Time;durP1;ratioP1;P1;durP2;ratioP2;P2;SDS_P1;SDS_P2;PMS_P1;PMS_P2;Temp;Humidity;BMP_temperature;BMP_pressure;BME280_temperature;BME280_humidity;BME280_pressure;Samples;Min_cycle;Max_cycle;Signal;HPM_P1;HPM_P2
2022/04/28 00:00:33;;;;;;;28.70;16.05;;;7.10;99.90;;;;;;4136311;28;20062;-73
2022/04/28 00:02:36;;;;;;;33.05;18.60;;;7.00;99.90;;;;;;4141705;28;20161;-74
2022/04/28 00:04:38;;;;;;;29.38;17.58;;;7.00;99.90;;;;;;4140663;28;20058;-74
2022/04/28 00:06:40;;;;;;;23.13;13.13;;;7.00;99.90;;;;;;4136199;28;20825;-75
2022/04/28 00:08:42;;;;;;;20.13;12.88;;;7.00;99.90;;;;;;4144614;28;20632;-73
2022/04/28 00:10:44;;;;;;;21.85;14.02;;;7.00;99.90;;;;;;4139588;28;20166;-73
2022/04/28 00:12:46;;;;;;;25.23;15.40;;;6.90;99.90;;;;;;4140858;28;20078;-74
2022/04/28 00:14:48;;;;;;;33.50;20.27;;;6.90;99.90;;;;;;4135214;28;20161;-74
2022/04/28 00:16:49;;;;;;;29.83;17.30;;;6.90;99.90;;;;;;4139539;28;20058;-75
2022/04/28 00:18:51;;;;;;;34.20;19.45;;;6.90;99.90;;;;;;4133975;28;20786;-75
2022/04/28 00:20:53;;;;;;;21.23;13.35;;;6.80;99.90;;;;;;4137628;28;20061;-73
2022/04/28 00:22:55;;;;;;;28.27;15.75;;;6.80;99.90;;;;;;4133936;28;20093;-74
2022/04/28 00:24:56;;;;;;;20.50;13.60;;;6.80;99.90;;;;;;4136285;28;20949;-75
2022/04/28 00:26:58;;;;;;;49.33;26.60;;;6.80;99.90;;;;;;4143346;28;20755;-74
2022/04/28 00:29:00;;;;;;;37.72;19.35;;;6.80;99.90;;;;;;4135327;28;20158;-73
2022/04/28 00:31:02;;;;;;;23.90;14.63;;;6.80;99.90;;;;;;4136917;28;20926;-74
2022/04/28 00:33:04;;;;;;;18.00;12.02;;;6.80;99.90;;;;;;4147494;28;20053;-74
2022/04/28 00:35:06;;;;;;;14.20;10.63;;;6.70;99.90;;;;;;4147306;28;20157;-75
2022/04/28 00:37:09;;;;;;;33.45;18.98;;;6.70;99.90;;;;;;4139049;28;20065;-74
2022/04/28 00:39:10;;;;;;;23.95;14.75;;;6.60;99.90;;;;;;4135776;28;20054;-75
2022/04/28 00:41:13;;;;;;;14.10;10.23;;;6.60;99.90;;;;;;4143523;28;20872;-73
2022/04/28 00:43:21;;;;;;;16.20;10.70;;;6.60;99.90;;;;;;4137504;28;20180;-73
2022/04/28 00:45:22;;;;;;;13.68;10.10;;;6.60;99.90;;;;;;4148416;28;20181;-73
2022/04/28 00:50:38;;;;;;;12.60;9.32;;;6.60;99.90;;;;;;4135422;28;20817;-74
2022/04/28 00:52:07;;;;;;;12.80;9.65;;;6.50;99.90;;;;;;4138976;28;20054;-74
2022/04/28 00:54:09;;;;;;;14.25;10.35;;;6.50;99.90;;;;;;4142114;28;20877;-74
2022/04/28 00:56:12;;;;;;;10.15;8.40;;;6.50;99.90;;;;;;4136947;28;20059;-74
2022/04/28 00:58:14;;;;;;;15.93;10.88;;;6.50;99.90;;;;;;4139275;28;20769;-74
2022/04/28 01:00:16;;;;;;;14.82;9.60;;;6.50;99.90;;;;;;4136301;28;20067;-74
2022/04/28 01:02:18;;;;;;;13.18;8.90;;;6.40;99.90;;;;;;4135825;28;20062;-74
2022/04/28 01:04:20;;;;;;;10.45;8.82;;;6.40;99.90;;;;;;4140098;28;20066;-73
2022/04/28 01:06:22;;;;;;;14.38;9.98;;;6.40;99.90;;;;;;4140236;28;20778;-74
2022/04/28 01:08:24;;;;;;;10.43;9.15;;;6.40;99.90;;;;;;4140791;28;20104;-74
2022/04/28 01:10:26;;;;;;;10.73;8.70;;;6.40;99.90;;;;;;4134334;28;20109;-74
2022/04/28 01:12:28;;;;;;;9.52;7.68;;;6.30;99.90;;;;;;4135693;28;20102;-74
2022/04/28 01:14:29;;;;;;;9.95;8.63;;;6.30;99.90;;;;;;4139193;28;20166;-74
2022/04/28 01:16:31;;;;;;;9.23;7.93;;;6.40;99.90;;;;;;4139290;28;20062;-74
2022/04/28 01:18:33;;;;;;;8.65;7.47;;;6.40;99.90;;;;;;4139914;28;20046;-74
2022/04/28 01:20:35;;;;;;;7.57;6.88;;;6.30;99.90;;;;;;4142771;28;20066;-75
2022/04/28 01:22:36;;;;;;;7.70;7.00;;;6.40;99.90;;;;;;4141867;28;20177;-74
2022/04/28 01:24:38;;;;;;;7.78;6.97;;;6.30;99.90;;;;;;4140567;28;20156;-75
2022/04/28 01:26:42;;;;;;;8.63;7.72;;;6.30;99.90;;;;;;4140288;28;20062;-74
2022/04/28 01:28:44;;;;;;;7.45;6.78;;;6.30;99.90;;;;;;4136559;28;20074;-74
2022/04/28 01:30:46;;;;;;;7.72;6.93;;;6.20;99.90;;;;;;4134451;28;20094;-75
2022/04/28 01:32:47;;;;;;;8.82;6.40;;;6.20;99.90;;;;;;4139470;28;20082;-75
2022/04/28 01:34:49;;;;;;;11.60;7.32;;;6.20;99.90;;;;;;4141758;28;20058;-74
2022/04/28 01:36:51;;;;;;;8.30;6.97;;;6.20;99.90;;;;;;4138425;28;20136;-74
2022/04/28 01:38:52;;;;;;;7.90;7.13;;;6.10;99.90;;;;;;4141655;28;20063;-74
2022/04/28 01:40:54;;;;;;;13.90;11.05;;;6.10;99.90;;;;;;4134726;28;20064;-74
2022/04/28 01:42:56;;;;;;;16.48;9.55;;;6.10;99.90;;;;;;4134302;28;20094;-74
2022/04/28 01:44:58;;;;;;;20.02;12.43;;;6.10;99.90;;;;;;4134436;28;20086;-74
2022/04/28 01:47:00;;;;;;;16.85;11.98;;;6.10;99.90;;;;;;4136864;28;20078;-74
2022/04/28 01:49:01;;;;;;;25.15;14.25;;;6.10;99.90;;;;;;4136593;28;20098;-74
2022/04/28 01:55:48;;;;;;;20.52;14.27;;;6.00;99.90;;;;;;4116868;28;20055;-74
2022/04/28 01:57:50;;;;;;;18.77;12.82;;;6.00;99.90;;;;;;4134751;28;20194;-74
2022/04/28 01:59:52;;;;;;;18.02;12.15;;;6.00;99.90;;;;;;4137968;28;20071;-75
2022/04/28 02:01:54;;;;;;;16.88;10.55;;;6.00;99.90;;;;;;4137480;28;20059;-74
2022/04/28 02:03:56;;;;;;;19.27;12.02;;;6.00;99.90;;;;;;4138799;28;20217;-74
2022/04/28 02:05:58;;;;;;;27.38;20.95;;;6.00;99.90;;;;;;4133981;28;20062;-74
2022/04/28 02:08:01;;;;;;;20.27;14.80;;;5.90;99.90;;;;;;4140350;28;20078;-74
2022/04/28 02:10:04;;;;;;;19.63;15.40;;;5.80;99.90;;;;;;4139314;28;20162;-74
2022/04/28 02:12:07;;;;;;;17.05;11.88;;;5.90;99.90;;;;;;4138034;28;20348;-74
2022/04/28 02:14:09;;;;;;;15.75;10.15;;;5.80;99.90;;;;;;4137860;28;20070;-74
2022/04/28 02:16:10;;;;;;;10.07;9.05;;;5.80;99.90;;;;;;4133906;28;20114;-75
2022/04/28 02:18:12;;;;;;;13.48;10.65;;;5.90;99.90;;;;;;4130041;28;20169;-74
2022/04/28 02:20:14;;;;;;;11.93;9.23;;;5.80;99.90;;;;;;4131237;28;20141;-74
2022/04/28 02:22:16;;;;;;;12.43;9.18;;;5.80;99.90;;;;;;4133590;28;20199;-74
2022/04/28 02:24:18;;;;;;;13.60;9.35;;;5.80;99.90;;;;;;4135158;28;20078;-74
2022/04/28 02:26:20;;;;;;;10.82;9.70;;;5.80;99.90;;;;;;4131204;28;20063;-74
2022/04/28 02:28:22;;;;;;;10.75;9.57;;;5.80;99.90;;;;;;4136279;28;20101;-74
2022/04/28 02:30:23;;;;;;;10.35;9.20;;;5.70;99.90;;;;;;4134910;28;20735;-74
2022/04/28 02:32:25;;;;;;;9.38;8.52;;;5.70;99.90;;;;;;4137531;28;20828;-74
2022/04/28 02:34:27;;;;;;;12.23;9.90;;;5.70;99.90;;;;;;4135733;28;20726;-74
2022/04/28 02:36:29;;;;;;;9.13;8.20;;;5.70;99.90;;;;;;4138326;28;20161;-74
2022/04/28 02:38:31;;;;;;;9.75;8.52;;;5.70;99.90;;;;;;4135327;28;20090;-74
2022/04/28 02:40:33;;;;;;;8.75;7.88;;;5.70;99.90;;;;;;4131501;28;20098;-74
2022/04/28 02:42:34;;;;;;;10.50;7.47;;;5.70;99.90;;;;;;4135350;28;20630;-74
2022/04/28 02:44:36;;;;;;;9.45;7.63;;;5.70;99.90;;;;;;4137470;28;20064;-75
2022/04/28 02:46:40;;;;;;;9.77;7.65;;;5.70;99.90;;;;;;4131451;28;20185;-74
2022/04/28 02:48:42;;;;;;;12.50;8.70;;;5.70;99.90;;;;;;4135699;28;20058;-74
2022/04/28 02:50:43;;;;;;;7.95;7.15;;;5.60;99.90;;;;;;4138783;28;20134;-74
2022/04/28 02:52:45;;;;;;;7.45;6.72;;;5.70;99.90;;;;;;4130932;28;20089;-75
2022/04/28 02:54:47;;;;;;;7.65;7.03;;;5.60;99.90;;;;;;4135903;28;20082;-75
2022/04/28 02:56:49;;;;;;;8.48;7.13;;;5.60;99.90;;;;;;4131628;28;20070;-75
2022/04/28 02:58:51;;;;;;;8.10;7.00;;;5.60;99.90;;;;;;4131711;28;20090;-74
2022/04/28 03:00:53;;;;;;;20.55;9.85;;;5.60;99.90;;;;;;4138648;28;20097;-74
2022/04/28 03:02:55;;;;;;;7.60;6.80;;;5.60;99.90;;;;;;4133972;28;20086;-74
2022/04/28 03:04:57;;;;;;;9.15;8.20;;;5.60;99.90;;;;;;4131750;28;20141;-74
2022/04/28 03:11:41;;;;;;;10.02;7.30;;;5.50;99.90;;;;;;4136201;28;20054;-74
2022/04/28 03:13:43;;;;;;;8.10;7.30;;;5.50;99.90;;;;;;4134978;28;20153;-74
2022/04/28 03:15:46;;;;;;;11.85;8.38;;;5.50;99.90;;;;;;4137152;28;20153;-74
2022/04/28 03:17:50;;;;;;;8.68;6.90;;;5.50;99.90;;;;;;4130475;28;20063;-74
2022/04/28 03:19:52;;;;;;;9.10;8.20;;;5.50;99.90;;;;;;4134299;28;20066;-74
2022/04/28 03:21:54;;;;;;;8.93;8.02;;;5.50;99.90;;;;;;4132921;28;20059;-74
2022/04/28 03:23:56;;;;;;;10.57;7.55;;;5.50;99.90;;;;;;4134370;28;20065;-74
2022/04/28 03:25:58;;;;;;;11.30;7.50;;;5.40;99.90;;;;;;4134984;28;20185;-74
2022/04/28 03:27:59;;;;;;;12.93;7.70;;;5.40;99.90;;;;;;4134474;28;20079;-74
2022/04/28 03:30:03;;;;;;;8.70;7.75;;;5.40;99.90;;;;;;4139061;28;20081;-74
2022/04/28 03:32:08;;;;;;;8.50;7.60;;;5.40;99.90;;;;;;4138964;28;20231;-74
2022/04/28 03:34:10;;;;;;;8.70;7.82;;;5.30;99.90;;;;;;4134665;28;20047;-74
2022/04/28 03:36:57;;;;;;;12.38;7.82;;;5.30;99.90;;;;;;4135511;28;20265;-75
2022/04/28 03:38:34;;;;;;;10.60;8.25;;;5.30;99.90;;;;;;4133319;28;20808;-74
2022/04/28 03:40:35;;;;;;;9.57;8.30;;;5.20;99.90;;;;;;4139265;28;20062;-74
2022/04/28 03:42:37;;;;;;;9.75;8.57;;;5.20;99.90;;;;;;4136060;28;20102;-74
2022/04/28 03:44:39;;;;;;;9.70;8.75;;;5.20;99.90;;;;;;4138157;28;20093;-74
2022/04/28 03:46:41;;;;;;;9.52;8.55;;;5.20;99.90;;;;;;4137890;28;20062;-74
2022/04/28 03:48:44;;;;;;;9.63;8.52;;;5.20;99.90;;;;;;4133997;28;20059;-74
2022/04/28 03:50:46;;;;;;;9.60;8.48;;;5.20;99.90;;;;;;4135308;28;20918;-74
2022/04/28 03:52:47;;;;;;;10.05;8.10;;;5.20;99.90;;;;;;4137475;28;20148;-74
2022/04/28 03:54:49;;;;;;;9.35;8.38;;;5.20;99.90;;;;;;4133492;28;20157;-73
2022/04/28 03:56:51;;;;;;;9.70;8.30;;;5.20;99.90;;;;;;4140682;28;20134;-74
2022/04/28 03:58:52;;;;;;;9.45;8.48;;;5.10;99.90;;;;;;4135103;28;20063;-74
2022/04/28 04:00:54;;;;;;;9.55;8.40;;;5.10;99.90;;;;;;4141241;28;20184;-74
2022/04/28 04:02:56;;;;;;;10.05;8.52;;;5.10;99.90;;;;;;4142380;28;20109;-74
2022/04/28 04:04:58;;;;;;;8.77;7.60;;;5.10;99.90;;;;;;4137021;28;20810;-73
2022/04/28 04:07:00;;;;;;;9.88;7.93;;;5.10;99.90;;;;;;4137404;28;20169;-73
2022/04/28 04:09:01;;;;;;;9.25;8.25;;;5.10;99.90;;;;;;4133446;28;20835;-73
2022/04/28 04:11:03;;;;;;;9.65;8.65;;;5.10;99.90;;;;;;4133879;28;20312;-74
2022/04/28 04:13:05;;;;;;;11.63;8.50;;;5.10;99.90;;;;;;4156574;22;20093;-72
2022/04/28 04:15:07;;;;;;;9.70;8.50;;;5.10;99.90;;;;;;4133833;28;20056;-74
2022/04/28 04:17:09;;;;;;;11.57;9.40;;;5.10;99.90;;;;;;4133022;28;20051;-73
2022/04/28 04:19:11;;;;;;;12.40;9.35;;;5.10;99.90;;;;;;4132689;28;20108;-75
2022/04/28 04:21:13;;;;;;;10.60;9.45;;;5.10;99.90;;;;;;4132427;28;20179;-75
2022/04/28 04:23:15;;;;;;;11.00;8.73;;;5.10;99.90;;;;;;4131739;28;20153;-75
2022/04/28 04:25:17;;;;;;;10.50;9.40;;;5.20;99.90;;;;;;4130267;28;20746;-78
2022/04/28 04:27:20;;;;;;;11.45;8.45;;;5.20;99.90;;;;;;4132575;28;20055;-76
2022/04/28 04:29:22;;;;;;;12.52;9.65;;;5.20;99.90;;;;;;4132349;28;20563;-75
2022/04/28 04:33:44;;;;;;;12.40;9.05;;;5.30;99.90;;;;;;4132351;28;20197;-77
2022/04/28 04:35:46;;;;;;;10.82;8.63;;;5.40;99.90;;;;;;4129740;28;20066;-75
2022/04/28 04:37:48;;;;;;;12.15;9.60;;;5.40;99.90;;;;;;4133600;28;20174;-74
2022/04/28 04:39:50;;;;;;;10.02;8.43;;;5.40;99.90;;;;;;4132372;28;20051;-76
2022/04/28 04:41:51;;;;;;;13.13;8.98;;;5.50;99.90;;;;;;4130766;28;20066;-77
2022/04/28 04:43:53;;;;;;;11.65;9.52;;;5.50;99.90;;;;;;4133490;28;20177;-76
2022/04/28 04:45:55;;;;;;;11.90;10.10;;;5.60;99.90;;;;;;4132878;28;20165;-76
2022/04/28 04:47:57;;;;;;;11.05;9.05;;;5.70;99.90;;;;;;4132022;28;20069;-77
2022/04/28 04:49:58;;;;;;;12.88;9.77;;;5.80;99.90;;;;;;4131389;28;20061;-76
2022/04/28 04:52:02;;;;;;;13.25;9.32;;;5.80;99.90;;;;;;4131638;28;20129;-75
2022/04/28 04:54:03;;;;;;;13.77;9.02;;;6.00;99.90;;;;;;4130799;28;20129;-75
2022/04/28 04:56:05;;;;;;;9.63;8.63;;;6.10;99.90;;;;;;4130481;28;20059;-76
2022/04/28 04:58:07;;;;;;;12.40;10.07;;;6.20;99.90;;;;;;4131909;28;20102;-76
2022/04/28 05:00:10;;;;;;;13.43;8.82;;;6.30;99.90;;;;;;4130925;28;20059;-76
2022/04/28 05:02:12;;;;;;;11.43;9.50;;;6.40;99.90;;;;;;4130099;28;20079;-76
2022/04/28 05:04:14;;;;;;;12.02;9.32;;;6.50;99.90;;;;;;4131542;28;20770;-76
2022/04/28 05:06:16;;;;;;;13.55;9.57;;;6.60;99.90;;;;;;4132355;28;20063;-76
2022/04/28 05:08:17;;;;;;;13.63;8.85;;;6.70;99.90;;;;;;4132358;28;20185;-75
2022/04/28 05:10:19;;;;;;;11.65;9.15;;;6.80;99.90;;;;;;4132344;28;20124;-75
2022/04/28 05:12:21;;;;;;;12.15;9.43;;;6.90;99.90;;;;;;4132265;28;20063;-75
2022/04/28 05:14:22;;;;;;;12.05;9.23;;;7.00;99.90;;;;;;4132861;28;20345;-75
2022/04/28 05:16:24;;;;;;;13.30;9.18;;;7.00;99.90;;;;;;4131867;28;20059;-76
2022/04/28 05:18:27;;;;;;;11.18;9.23;;;7.10;99.90;;;;;;4131597;28;20166;-76
2022/04/28 05:20:30;;;;;;;9.98;8.98;;;7.20;99.90;;;;;;4131627;28;20648;-77
2022/04/28 05:22:32;;;;;;;11.77;9.13;;;7.30;99.90;;;;;;4132295;28;20054;-76
2022/04/28 05:24:34;;;;;;;11.65;9.38;;;7.40;99.90;;;;;;4133697;28;20141;-79
2022/04/28 05:26:36;;;;;;;12.00;8.90;;;7.50;99.90;;;;;;4142485;28;20059;-78
2022/04/28 05:28:38;;;;;;;15.65;9.45;;;7.70;99.90;;;;;;4135617;28;20093;-78
2022/04/28 05:30:40;;;;;;;11.15;8.82;;;7.80;99.90;;;;;;4134159;28;20062;-77
2022/04/28 05:32:41;;;;;;;9.23;7.78;;;8.00;99.90;;;;;;4134032;28;20059;-77
2022/04/28 05:34:43;;;;;;;9.73;8.73;;;8.20;99.90;;;;;;4133825;28;20073;-76
2022/04/28 05:36:46;;;;;;;11.57;9.32;;;8.30;99.90;;;;;;4135770;28;20058;-78
2022/04/28 05:38:56;;;;;;;11.20;8.70;;;8.40;99.90;;;;;;4134192;28;20085;-77
2022/04/28 05:40:58;;;;;;;10.27;8.85;;;8.50;99.90;;;;;;4134151;28;20177;-77
2022/04/28 05:47:41;;;;;;;12.60;10.00;;;9.00;99.90;;;;;;4129953;28;20069;-77
2022/04/28 05:49:43;;;;;;;14.63;9.55;;;9.10;99.90;;;;;;4131892;28;20093;-77
2022/04/28 05:51:44;;;;;;;10.88;9.60;;;9.30;99.90;;;;;;4130631;28;20093;-77
2022/04/28 05:53:46;;;;;;;12.90;9.98;;;9.50;99.90;;;;;;4130760;28;20169;-77
2022/04/28 05:55:48;;;;;;;11.63;9.65;;;9.50;99.90;;;;;;4131335;28;20817;-76
2022/04/28 05:57:49;;;;;;;12.20;10.02;;;9.70;99.90;;;;;;4131827;28;20098;-77
2022/04/28 05:59:51;;;;;;;12.93;10.25;;;9.80;99.90;;;;;;4131585;28;20055;-77
2022/04/28 06:01:53;;;;;;;10.30;9.20;;;10.00;99.00;;;;;;4130641;28;20059;-77
2022/04/28 06:03:55;;;;;;;11.05;9.30;;;10.10;99.10;;;;;;4130000;28;20153;-77
2022/04/28 06:05:57;;;;;;;10.32;9.10;;;10.20;98.70;;;;;;4131734;28;20081;-77
2022/04/28 06:07:59;;;;;;;10.75;9.60;;;10.30;96.90;;;;;;4131210;28;20112;-77
2022/04/28 06:10:00;;;;;;;12.20;8.38;;;10.40;96.40;;;;;;4131424;28;20098;-75
2022/04/28 06:12:02;;;;;;;16.23;8.90;;;10.40;95.90;;;;;;4131280;28;20131;-77
2022/04/28 06:14:04;;;;;;;11.02;9.07;;;10.50;94.60;;;;;;4131214;28;20059;-77
2022/04/28 06:16:06;;;;;;;9.98;8.98;;;10.50;94.40;;;;;;4132131;28;21784;-76
2022/04/28 06:18:08;;;;;;;9.95;7.30;;;10.60;94.90;;;;;;4131086;28;20058;-76
2022/04/28 06:20:10;;;;;;;10.55;8.45;;;10.70;93.60;;;;;;4131640;28;20050;-76
2022/04/28 06:22:19;;;;;;;9.70;8.70;;;10.70;93.00;;;;;;4131308;28;20070;-76
2022/04/28 06:24:21;;;;;;;9.02;8.13;;;10.80;92.90;;;;;;4130950;28;20985;-75
2022/04/28 06:26:23;;;;;;;10.07;7.40;;;10.90;92.40;;;;;;4130266;28;20098;-75
2022/04/28 06:28:24;;;;;;;8.65;7.80;;;11.00;92.00;;;;;;4128933;28;20145;-75
2022/04/28 06:30:27;;;;;;;11.55;8.07;;;11.00;91.70;;;;;;4131439;28;20085;-77
2022/04/28 06:32:28;;;;;;;8.25;7.38;;;11.00;91.40;;;;;;4130840;28;20059;-77
2022/04/28 06:34:30;;;;;;;7.35;6.70;;;11.10;91.30;;;;;;4132131;28;20165;-77
2022/04/28 06:36:34;;;;;;;9.90;7.82;;;11.20;90.70;;;;;;4132097;28;20059;-77
2022/04/28 06:38:36;;;;;;;6.90;6.30;;;11.20;90.70;;;;;;4132796;28;20825;-76
2022/04/28 06:40:37;;;;;;;12.02;7.40;;;11.30;90.80;;;;;;4131933;28;20063;-76
2022/04/28 06:42:43;;;;;;;7.78;7.00;;;11.40;89.80;;;;;;4131342;28;20647;-76
2022/04/28 06:44:45;;;;;;;6.82;6.20;;;11.50;89.90;;;;;;4127074;28;20113;-75
2022/04/28 06:46:47;;;;;;;8.02;6.72;;;11.50;89.40;;;;;;4130753;28;20057;-75
2022/04/28 06:48:49;;;;;;;6.20;5.57;;;11.60;88.70;;;;;;4131536;28;20069;-75
2022/04/28 06:50:51;;;;;;;7.03;6.32;;;11.60;87.10;;;;;;4128552;28;20105;-75
2022/04/28 06:52:52;;;;;;;6.32;5.72;;;11.60;87.90;;;;;;4131253;28;20055;-76
2022/04/28 06:54:54;;;;;;;6.50;5.90;;;11.60;85.50;;;;;;4131064;28;20065;-75
2022/04/28 06:56:56;;;;;;;7.13;5.45;;;11.60;85.40;;;;;;4130693;28;20130;-76
2022/04/28 06:58:57;;;;;;;6.68;6.07;;;11.70;86.90;;;;;;4132182;28;20205;-73
2022/04/28 07:00:59;;;;;;;6.32;5.72;;;11.80;86.50;;;;;;4130903;28;20182;-73
2022/04/28 07:03:01;;;;;;;6.07;5.57;;;11.80;86.40;;;;;;4131007;28;20094;-73
2022/04/28 07:05:03;;;;;;;7.93;5.72;;;11.80;84.90;;;;;;4130414;28;20066;-73
2022/04/28 07:07:05;;;;;;;8.55;5.25;;;11.90;85.70;;;;;;4132485;28;20109;-73
2022/04/28 07:09:07;;;;;;;5.50;5.03;;;11.90;84.60;;;;;;4133119;28;20050;-74
2022/04/28 07:11:09;;;;;;;5.15;4.75;;;12.00;84.20;;;;;;4132191;28;20063;-72
2022/04/28 07:13:10;;;;;;;5.65;5.10;;;12.00;83.90;;;;;;4132564;28;20870;-73
2022/04/28 07:15:12;;;;;;;6.25;5.75;;;12.00;83.90;;;;;;4133198;28;20091;-73
2022/04/28 07:17:14;;;;;;;5.07;4.65;;;12.00;83.40;;;;;;4132270;28;20190;-72
2022/04/28 07:19:15;;;;;;;5.32;4.57;;;12.10;84.40;;;;;;4132977;28;20094;-73
2022/04/28 07:21:17;;;;;;;5.85;4.40;;;12.20;83.40;;;;;;4133185;28;20063;-72
2022/04/28 07:23:19;;;;;;;6.10;4.55;;;12.30;83.10;;;;;;4131609;28;20058;-73
2022/04/28 07:25:20;;;;;;;4.50;4.10;;;12.40;81.60;;;;;;4133036;28;20065;-72
2022/04/28 07:27:22;;;;;;;6.75;3.88;;;12.50;79.80;;;;;;4133557;28;20090;-73
2022/04/28 07:29:24;;;;;;;4.70;4.28;;;12.50;80.90;;;;;;4132841;28;20055;-72
2022/04/28 07:31:26;;;;;;;5.75;4.18;;;12.60;79.00;;;;;;4132319;28;20177;-72
2022/04/28 07:33:28;;;;;;;4.38;4.07;;;12.60;78.90;;;;;;4132407;28;20098;-73
2022/04/28 07:35:30;;;;;;;4.78;4.38;;;12.60;78.80;;;;;;4131262;28;20051;-73
2022/04/28 07:37:31;;;;;;;4.97;4.57;;;12.70;77.20;;;;;;4133048;28;20055;-72
2022/04/28 07:39:33;;;;;;;6.45;3.72;;;12.70;78.20;;;;;;4131912;28;20059;-72
2022/04/28 07:41:35;;;;;;;5.57;4.88;;;12.70;77.60;;;;;;4133137;28;20093;-72
2022/04/28 07:43:36;;;;;;;4.85;4.45;;;12.60;77.00;;;;;;4132916;28;20051;-70
2022/04/28 07:45:38;;;;;;;5.47;4.53;;;12.60;78.40;;;;;;4133586;28;20053;-73
2022/04/28 07:47:46;;;;;;;4.78;4.25;;;12.60;77.30;;;;;;4131044;28;20606;-71
2022/04/28 07:49:48;;;;;;;5.00;3.78;;;12.60;76.40;;;;;;4132547;28;20054;-73
2022/04/28 07:51:49;;;;;;;4.50;4.07;;;12.60;76.90;;;;;;4131583;28;20065;-73
2022/04/28 07:53:51;;;;;;;5.25;4.75;;;12.60;75.80;;;;;;4131164;28;20105;-71
2022/04/28 07:56:12;;;;;;;7.68;5.60;;;12.70;77.00;;;;;;4131525;28;20066;-72
2022/04/28 07:58:15;;;;;;;7.30;4.63;;;12.70;76.10;;;;;;4132781;28;20047;-73
2022/04/28 08:00:17;;;;;;;4.63;4.22;;;12.80;76.80;;;;;;4134957;28;20069;-74
2022/04/28 08:02:19;;;;;;;4.53;4.13;;;12.90;74.90;;;;;;4134754;28;20098;-73
2022/04/28 08:04:21;;;;;;;6.45;4.75;;;13.00;75.00;;;;;;4135035;28;21230;-73
2022/04/28 08:06:29;;;;;;;5.50;4.80;;;13.10;75.00;;;;;;4135305;28;20181;-72
2022/04/28 08:08:33;;;;;;;5.63;4.35;;;13.20;76.50;;;;;;4135339;28;20058;-72
2022/04/28 08:10:35;;;;;;;4.70;4.40;;;13.20;74.20;;;;;;4135812;28;20059;-72
2022/04/28 08:12:37;;;;;;;4.47;4.00;;;13.30;74.10;;;;;;4134701;28;20101;-72
2022/04/28 08:14:49;;;;;;;4.78;4.03;;;13.30;74.40;;;;;;4135649;28;20063;-73
2022/04/28 08:16:51;;;;;;;4.28;3.88;;;13.30;75.20;;;;;;4135085;28;20851;-72
2022/04/28 08:18:54;;;;;;;6.47;4.43;;;13.50;73.90;;;;;;4135310;28;20963;-73
2022/04/28 08:20:56;;;;;;;4.68;3.97;;;13.60;72.30;;;;;;4135579;28;20080;-73
2022/04/28 08:22:58;;;;;;;3.83;3.53;;;13.70;72.60;;;;;;4135261;28;20240;-72
2022/04/28 08:25:01;;;;;;;4.57;3.72;;;13.70;72.30;;;;;;4134567;28;20711;-72
2022/04/28 08:27:03;;;;;;;4.75;4.25;;;13.80;71.00;;;;;;4137208;28;20066;-74
2022/04/28 08:29:05;;;;;;;5.10;3.63;;;13.90;69.80;;;;;;4135904;28;20058;-74
2022/04/28 08:31:07;;;;;;;3.67;3.38;;;14.00;69.30;;;;;;4135665;28;20082;-73
2022/04/28 08:33:09;;;;;;;4.50;4.10;;;14.00;65.90;;;;;;4135002;28;20249;-73
2022/04/28 08:35:10;;;;;;;4.90;3.40;;;14.00;64.70;;;;;;4135364;28;20101;-73
2022/04/28 08:37:12;;;;;;;8.25;3.85;;;14.00;68.20;;;;;;4134834;28;20090;-72
2022/04/28 08:39:14;;;;;;;7.35;4.13;;;14.00;63.00;;;;;;4135106;28;20090;-74
2022/04/28 08:41:27;;;;;;;4.10;3.80;;;13.80;64.40;;;;;;4135247;28;20125;-72
2022/04/28 08:43:31;;;;;;;4.43;3.95;;;13.80;65.60;;;;;;4135084;28;20061;-73
2022/04/28 08:46:50;;;;;;;5.20;4.10;;;14.00;67.20;;;;;;4131417;28;20070;-73
2022/04/28 08:48:03;;;;;;;5.03;3.63;;;14.20;67.40;;;;;;4133423;28;20115;-73
2022/04/28 08:50:05;;;;;;;3.60;3.15;;;14.30;64.90;;;;;;4134880;28;20059;-73
2022/04/28 08:52:07;;;;;;;4.78;4.28;;;14.20;61.90;;;;;;4134205;28;20066;-73
2022/04/28 08:54:10;;;;;;;4.03;3.63;;;14.30;61.90;;;;;;4133799;28;20177;-75
2022/04/28 08:56:12;;;;;;;6.10;3.10;;;14.30;61.30;;;;;;4131697;28;20078;-73
2022/04/28 08:58:14;;;;;;;3.60;3.10;;;14.40;61.20;;;;;;4134421;28;20050;-73
2022/04/28 09:00:16;;;;;;;3.95;2.97;;;14.50;62.70;;;;;;4134362;28;20055;-74
2022/04/28 09:02:27;;;;;;;6.55;3.65;;;14.50;59.00;;;;;;4133758;28;20165;-71
2022/04/28 09:04:30;;;;;;;4.63;3.97;;;14.50;59.40;;;;;;4130957;28;20054;-72
2022/04/28 09:06:34;;;;;;;3.35;3.13;;;14.50;60.60;;;;;;4134835;28;20070;-72
2022/04/28 09:08:36;;;;;;;3.83;3.53;;;14.60;60.10;;;;;;4134801;28;20059;-72
2022/04/28 09:10:37;;;;;;;4.22;3.03;;;14.50;60.00;;;;;;4134187;28;20101;-72
2022/04/28 09:14:09;;;;;;;3.10;2.67;;;14.70;61.10;;;;;;4133665;28;20158;-72
2022/04/28 09:15:23;;;;;;;3.13;2.83;;;14.70;58.00;;;;;;4133098;28;20181;-72
2022/04/28 09:17:40;;;;;;;3.97;2.92;;;14.70;59.40;;;;;;4133402;28;20113;-72
2022/04/28 09:19:41;;;;;;;3.63;3.33;;;14.80;59.70;;;;;;4135038;28;20964;-72
2022/04/28 09:21:43;;;;;;;5.68;3.92;;;14.90;59.30;;;;;;4133876;28;20091;-73
2022/04/28 09:23:52;;;;;;;4.75;3.35;;;14.90;60.10;;;;;;4134218;28;20058;-72
2022/04/28 09:25:54;;;;;;;3.38;3.08;;;14.90;59.60;;;;;;4134010;28;20070;-73
2022/04/28 09:27:59;;;;;;;8.55;2.80;;;15.10;59.40;;;;;;4134269;28;20085;-72
2022/04/28 09:30:01;;;;;;;2.97;2.70;;;15.20;59.10;;;;;;4132511;28;20088;-74
2022/04/28 09:32:09;;;;;;;4.38;2.53;;;15.30;58.80;;;;;;4126631;28;20968;-73
2022/04/28 09:34:31;;;;;;;5.38;2.95;;;15.40;56.50;;;;;;4130906;28;20194;-72
2022/04/28 09:36:33;;;;;;;3.60;3.25;;;15.40;56.80;;;;;;4133644;28;20181;-72
2022/04/28 09:38:35;;;;;;;2.95;2.75;;;15.40;57.20;;;;;;4134231;28;20054;-72
2022/04/28 09:43:09;;;;;;;2.80;2.22;;;15.20;52.70;;;;;;4133778;28;20062;-72
2022/04/28 09:45:14;;;;;;;3.53;2.58;;;15.30;53.50;;;;;;4133497;28;20069;-73
2022/04/28 09:47:18;;;;;;;4.78;2.55;;;15.40;52.80;;;;;;4134413;28;20800;-71
2022/04/28 09:49:23;;;;;;;2.20;2.00;;;15.30;51.70;;;;;;4131148;28;20054;-72
2022/04/28 09:51:25;;;;;;;2.67;2.50;;;15.40;53.60;;;;;;4132945;28;20180;-72
2022/04/28 09:53:32;;;;;;;3.40;2.38;;;15.30;52.10;;;;;;4133248;28;20094;-73
2022/04/28 09:55:35;;;;;;;3.50;2.20;;;15.30;53.20;;;;;;4133548;28;20105;-74
2022/04/28 09:57:37;;;;;;;2.75;2.25;;;15.50;51.30;;;;;;4133608;28;20059;-74
2022/04/28 09:59:39;;;;;;;3.47;3.17;;;15.50;51.60;;;;;;4133839;28;20058;-72
2022/04/28 10:01:42;;;;;;;2.50;2.30;;;15.60;52.20;;;;;;4133611;28;20814;-74
2022/04/28 10:03:44;;;;;;;2.85;2.63;;;15.50;52.80;;;;;;4131233;28;20062;-73
2022/04/28 10:05:48;;;;;;;2.80;2.60;;;15.60;52.60;;;;;;4131720;28;20059;-74
2022/04/28 10:07:50;;;;;;;3.55;2.85;;;15.70;55.00;;;;;;4133750;28;20069;-75
2022/04/28 10:09:52;;;;;;;4.55;2.55;;;15.90;53.60;;;;;;4134143;28;20069;-71
2022/04/28 10:11:55;;;;;;;4.93;2.60;;;15.90;52.50;;;;;;4133055;28;20062;-74
2022/04/28 10:13:59;;;;;;;4.40;2.92;;;15.80;52.90;;;;;;4161844;22;20214;-73
2022/04/28 10:16:07;;;;;;;2.92;2.15;;;15.70;52.70;;;;;;4143461;28;20157;-73
2022/04/28 10:18:11;;;;;;;2.78;2.30;;;15.80;53.40;;;;;;4141730;28;20113;-72
2022/04/28 10:20:18;;;;;;;2.22;2.03;;;15.80;51.50;;;;;;4143210;28;20928;-73
2022/04/28 10:22:41;;;;;;;4.85;2.67;;;15.80;52.50;;;;;;4144118;28;20074;-73
2022/04/28 10:34:19;;;;;;;3.17;2.88;;;15.90;51.90;;;;;;4144025;28;20133;-73
2022/04/28 10:36:21;;;;;;;3.35;2.97;;;16.00;52.20;;;;;;4147568;28;20091;-73
2022/04/28 10:38:24;;;;;;;3.25;2.92;;;16.00;52.30;;;;;;4146981;28;20054;-72
2022/04/28 10:40:26;;;;;;;3.10;2.90;;;16.00;52.40;;;;;;4148319;28;20185;-72
2022/04/28 10:42:28;;;;;;;3.58;3.28;;;16.00;52.60;;;;;;4147583;28;20058;-73
2022/04/28 10:44:30;;;;;;;5.18;2.53;;;16.00;52.30;;;;;;4148716;28;20059;-73
2022/04/28 10:46:32;;;;;;;2.72;2.53;;;16.00;53.00;;;;;;4142157;28;21546;-73
2022/04/28 10:48:36;;;;;;;4.10;3.08;;;16.00;53.90;;;;;;4144496;28;20065;-73
2022/04/28 10:50:38;;;;;;;2.25;2.10;;;16.10;53.00;;;;;;4146344;28;20113;-73
2022/04/28 10:52:40;;;;;;;3.15;2.53;;;16.10;52.00;;;;;;4142912;28;20177;-72
2022/04/28 10:54:43;;;;;;;2.75;2.05;;;16.00;52.70;;;;;;4142967;28;20102;-73
2022/04/28 10:56:52;;;;;;;4.55;2.90;;;16.00;52.40;;;;;;4143879;28;20801;-73
2022/04/28 10:59:21;;;;;;;2.65;2.40;;;16.10;52.00;;;;;;4144110;28;20062;-73
2022/04/28 11:01:25;;;;;;;3.20;2.70;;;16.10;53.00;;;;;;4145297;28;21205;-72
2022/04/28 11:03:42;;;;;;;2.72;2.45;;;16.20;52.30;;;;;;4146923;28;20860;-73
2022/04/28 11:05:44;;;;;;;3.47;3.17;;;16.20;53.80;;;;;;4137791;28;20059;-74
2022/04/28 11:07:46;;;;;;;3.10;2.80;;;16.20;52.30;;;;;;4139699;28;20812;-73
2022/04/28 11:09:57;;;;;;;3.85;2.63;;;16.20;52.50;;;;;;4144311;28;20063;-73